Time;durP1;ratioP1;P1;durP2;ratioP2;P2;SDS_P1;SDS_P2;PMS_P1;PMS_P2;Temp;Humidity;BMP_temperature;BMP_pressure;BME280_temperature;BME280_humidity;BME280_pressure;Samples;Min_cycle;Max_cycle;Signal;HPM_P1;HPM_P2
2024/01/09 00:01:59;;;;;;;5.43;4.80;;;-3.90;96.10;;;;;;5026857;28;20446;-64
2024/01/09 00:04:27;;;;;;;6.97;4.95;;;-4.00;95.80;;;;;;5025372;28;20751;-62
2024/01/09 00:06:53;;;;;;;5.88;5.00;;;-4.00;96.30;;;;;;5024660;28;20439;-64
2024/01/09 00:09:20;;;;;;;5.45;4.82;;;-3.90;95.40;;;;;;5024814;28;20821;-63
2024/01/09 00:11:47;;;;;;;5.60;5.03;;;-4.00;95.70;;;;;;5026874;28;20569;-63
2024/01/09 00:14:15;;;;;;;5.20;4.57;;;-4.00;95.10;;;;;;5025328;28;20466;-63
2024/01/09 00:16:42;;;;;;;6.33;5.27;;;-3.90;94.90;;;;;;5025214;28;20434;-63
2024/01/09 00:19:09;;;;;;;5.82;4.90;;;-3.90;95.20;;;;;;5025680;28;20415;-63
2024/01/09 00:21:39;;;;;;;4.90;4.40;;;-3.90;95.50;;;;;;5025499;28;20770;-63
2024/01/09 00:24:06;;;;;;;5.20;4.38;;;-3.90;95.30;;;;;;5025509;28;20443;-63
2024/01/09 00:26:40;;;;;;;4.88;4.38;;;-3.90;95.00;;;;;;5016775;28;20506;-62
2024/01/09 00:29:07;;;;;;;6.13;4.53;;;-4.00;94.70;;;;;;5018813;28;20439;-65
2024/01/09 00:31:34;;;;;;;6.88;4.85;;;-4.00;94.50;;;;;;5026562;28;20441;-65
2024/01/09 00:34:01;;;;;;;4.90;4.40;;;-4.00;95.40;;;;;;5029026;28;20518;-62
2024/01/09 00:36:28;;;;;;;4.40;4.00;;;-4.00;95.40;;;;;;5027437;28;20431;-63
2024/01/09 00:38:56;;;;;;;5.50;4.43;;;-4.00;94.80;;;;;;5024079;28;20462;-63
2024/01/09 00:41:22;;;;;;;5.00;4.50;;;-4.00;95.10;;;;;;5026269;28;20439;-63
2024/01/09 00:43:49;;;;;;;5.60;4.70;;;-4.00;94.90;;;;;;5026281;28;20438;-63
2024/01/09 00:46:16;;;;;;;5.10;4.40;;;-4.00;94.40;;;;;;5025069;28;20857;-63
2024/01/09 00:48:42;;;;;;;4.60;4.00;;;-4.00;94.80;;;;;;5024196;28;20439;-63
2024/01/09 00:51:09;;;;;;;4.50;4.00;;;-3.90;94.80;;;;;;5024444;28;20446;-64
2024/01/09 00:53:36;;;;;;;4.90;4.40;;;-3.90;94.40;;;;;;5021645;28;20433;-63
2024/01/09 00:56:04;;;;;;;5.25;4.75;;;-4.00;94.50;;;;;;5029080;28;20727;-63
2024/01/09 00:58:31;;;;;;;5.68;4.50;;;-4.00;94.10;;;;;;5029167;28;20885;-62
2024/01/09 01:00:58;;;;;;;4.82;4.32;;;-4.00;93.80;;;;;;5033553;28;20478;-65
2024/01/09 01:03:24;;;;;;;6.90;4.53;;;-4.10;94.00;;;;;;5024861;28;20437;-64
2024/01/09 01:05:52;;;;;;;4.90;4.40;;;-4.10;93.80;;;;;;5024483;28;20446;-62
2024/01/09 01:08:18;;;;;;;5.00;4.30;;;-4.10;94.50;;;;;;5023785;28;20442;-63
2024/01/09 01:10:45;;;;;;;5.80;5.20;;;-4.10;94.50;;;;;;5023558;28;20446;-64
2024/01/09 01:13:13;;;;;;;4.40;4.00;;;-4.10;94.80;;;;;;5023253;28;20427;-65
2024/01/09 01:15:40;;;;;;;5.30;4.50;;;-4.00;95.10;;;;;;5024985;28;20415;-62
2024/01/09 01:18:06;;;;;;;4.30;3.90;;;-4.00;94.20;;;;;;5023622;28;20430;-63
2024/01/09 01:20:33;;;;;;;5.68;4.60;;;-4.10;94.90;;;;;;5023513;28;20411;-62
2024/01/09 01:23:00;;;;;;;4.40;4.00;;;-4.10;94.90;;;;;;5024824;28;20992;-63
2024/01/09 01:25:27;;;;;;;4.90;4.40;;;-4.10;94.90;;;;;;5022856;28;20453;-64
2024/01/09 01:27:53;;;;;;;4.85;4.00;;;-4.10;95.00;;;;;;5022988;28;20850;-63
2024/01/09 01:30:21;;;;;;;5.78;4.53;;;-4.10;94.30;;;;;;5022979;28;20445;-63
2024/01/09 01:32:48;;;;;;;4.53;3.80;;;-4.10;94.70;;;;;;5024074;28;20435;-64
2024/01/09 01:35:15;;;;;;;4.82;4.30;;;-4.10;94.60;;;;;;5023986;28;20963;-64
2024/01/09 01:37:42;;;;;;;5.35;4.60;;;-4.10;94.80;;;;;;5023521;28;20909;-68
2024/01/09 01:40:09;;;;;;;4.90;4.20;;;-4.10;95.30;;;;;;5024758;28;20481;-64
2024/01/09 01:42:36;;;;;;;4.90;4.05;;;-4.10;95.60;;;;;;5029745;28;20415;-63
2024/01/09 01:45:11;;;;;;;4.90;4.10;;;-4.10;95.50;;;;;;5047041;28;20441;-62
2024/01/09 01:47:40;;;;;;;5.47;4.40;;;-4.10;95.40;;;;;;5034320;28;20468;-69
2024/01/09 01:50:08;;;;;;;4.90;4.40;;;-4.20;95.00;;;;;;5032812;28;20528;-63
2024/01/09 01:52:34;;;;;;;5.25;4.25;;;-4.20;95.10;;;;;;5024014;28;20450;-64
2024/01/09 01:55:01;;;;;;;5.43;4.47;;;-4.20;95.20;;;;;;5025005;28;20463;-63
2024/01/09 01:57:28;;;;;;;5.47;4.57;;;-4.20;95.30;;;;;;5017072;28;20435;-63
2024/01/09 01:59:57;;;;;;;5.63;4.55;;;-4.20;95.10;;;;;;5024770;28;20439;-64
2024/01/09 02:02:26;;;;;;;5.10;4.60;;;-4.20;95.20;;;;;;5010262;28;20862;-63
2024/01/09 02:04:54;;;;;;;5.40;4.67;;;-4.20;95.80;;;;;;5021720;28;20427;-63
2024/01/09 02:07:24;;;;;;;5.85;4.50;;;-4.20;95.50;;;;;;5022283;28;20435;-63
2024/01/09 02:09:53;;;;;;;5.00;4.50;;;-4.30;96.50;;;;;;5022173;28;20442;-64
2024/01/09 02:12:20;;;;;;;5.30;4.23;;;-4.30;96.50;;;;;;5023276;28;20438;-62
2024/01/09 02:14:47;;;;;;;5.13;4.45;;;-4.20;96.60;;;;;;5022961;28;20434;-63
2024/01/09 02:17:14;;;;;;;7.07;4.40;;;-4.30;96.10;;;;;;5024977;28;20449;-64
2024/01/09 02:19:41;;;;;;;5.30;4.13;;;-4.30;96.30;;;;;;5023761;28;20782;-64
2024/01/09 02:22:09;;;;;;;5.28;4.78;;;-4.30;96.20;;;;;;5022347;28;20609;-63
2024/01/09 02:24:35;;;;;;;5.35;4.60;;;-4.30;96.10;;;;;;5026738;28;20446;-64
2024/01/09 02:27:11;;;;;;;4.40;3.90;;;-4.30;96.40;;;;;;5022666;28;20473;-63
2024/01/09 02:29:47;;;;;;;5.65;5.03;;;-4.30;96.40;;;;;;5021123;28;20418;-64
2024/01/09 02:32:15;;;;;;;5.47;4.82;;;-4.30;96.00;;;;;;5025639;28;20935;-64
2024/01/09 02:34:44;;;;;;;5.20;4.50;;;-4.30;96.60;;;;;;5029769;28;20464;-64
2024/01/09 02:37:11;;;;;;;5.00;4.43;;;-4.30;96.80;;;;;;5028453;28;20434;-64
2024/01/09 02:39:38;;;;;;;4.40;4.00;;;-4.30;96.40;;;;;;5026581;28;20457;-63
2024/01/09 02:42:05;;;;;;;4.72;4.25;;;-4.30;96.40;;;;;;5028521;28;20450;-63
2024/01/09 02:44:32;;;;;;;4.93;4.18;;;-4.30;95.90;;;;;;5029482;28;20446;-63
2024/01/09 02:47:00;;;;;;;4.72;3.97;;;-4.30;96.40;;;;;;5028937;28;20852;-63
2024/01/09 02:49:27;;;;;;;5.30;4.80;;;-4.30;96.10;;;;;;5026950;28;20446;-63
2024/01/09 02:51:54;;;;;;;5.60;4.35;;;-4.30;95.90;;;;;;5026462;28;20426;-66
2024/01/09 02:54:21;;;;;;;5.28;4.65;;;-4.40;95.90;;;;;;5026626;28;20437;-68
2024/01/09 02:56:48;;;;;;;5.07;4.68;;;-4.40;96.20;;;;;;5029141;28;20434;-64
2024/01/09 02:59:14;;;;;;;5.00;4.50;;;-4.40;96.50;;;;;;5023541;28;20486;-64
2024/01/09 03:01:41;;;;;;;5.20;4.63;;;-4.40;96.80;;;;;;5018584;28;20493;-64
2024/01/09 03:04:09;;;;;;;5.53;4.80;;;-4.30;97.10;;;;;;5025333;28;20434;-62
2024/01/09 03:06:36;;;;;;;5.80;4.40;;;-4.30;97.50;;;;;;5028039;28;20434;-64
2024/01/09 03:09:03;;;;;;;5.25;4.50;;;-4.40;97.80;;;;;;5030337;28;20438;-64
2024/01/09 03:11:29;;;;;;;5.70;4.80;;;-4.40;98.60;;;;;;5027049;28;20446;-64
2024/01/09 03:13:56;;;;;;;6.00;4.90;;;-4.40;99.50;;;;;;5026235;28;20442;-66
2024/01/09 03:16:23;;;;;;;6.13;4.70;;;-4.40;99.90;;;;;;5030643;28;20481;-64
2024/01/09 03:18:49;;;;;;;5.63;4.82;;;-4.40;99.90;;;;;;5029268;28;20430;-64
2024/01/09 03:21:17;;;;;;;6.53;5.20;;;-4.40;99.90;;;;;;5024994;28;20442;-64
2024/01/09 03:23:44;;;;;;;5.63;4.97;;;-4.50;99.90;;;;;;5023465;28;20436;-64
2024/01/09 03:26:11;;;;;;;5.45;4.85;;;-4.50;99.90;;;;;;5027553;28;20410;-64
2024/01/09 03:28:38;;;;;;;5.18;4.25;;;-4.60;99.90;;;;;;5024844;28;20930;-63
2024/01/09 03:31:05;;;;;;;5.57;4.70;;;-4.50;99.90;;;;;;5026872;28;20496;-64
2024/01/09 03:33:31;;;;;;;6.40;4.35;;;-4.50;99.90;;;;;;5027073;28;20427;-64
2024/01/09 03:35:58;;;;;;;4.70;4.18;;;-4.50;99.90;;;;;;5027154;28;20877;-64
2024/01/09 03:38:26;;;;;;;5.38;4.40;;;-4.50;99.60;;;;;;5024728;28;20461;-64
2024/01/09 03:40:53;;;;;;;5.25;4.75;;;-4.50;99.80;;;;;;5026459;28;20507;-63
2024/01/09 03:43:20;;;;;;;5.25;4.20;;;-4.50;99.30;;;;;;5026725;28;20757;-63
2024/01/09 03:45:47;;;;;;;5.40;4.90;;;-4.60;99.20;;;;;;5037118;28;20821;-64
2024/01/09 03:48:13;;;;;;;5.13;4.40;;;-4.60;98.70;;;;;;5028789;28;20435;-63
2024/01/09 03:50:40;;;;;;;5.60;4.55;;;-4.60;98.50;;;;;;5024805;28;20526;-64
2024/01/09 03:53:07;;;;;;;5.55;4.93;;;-4.70;98.90;;;;;;5025505;28;20897;-64
2024/01/09 03:55:35;;;;;;;5.72;5.00;;;-4.60;99.20;;;;;;5028689;28;20458;-64
2024/01/09 03:58:02;;;;;;;5.40;4.90;;;-4.60;99.10;;;;;;5030649;28;20460;-63
2024/01/09 04:00:28;;;;;;;5.80;4.70;;;-4.60;98.90;;;;;;5029122;28;20458;-63
2024/01/09 04:02:55;;;;;;;7.00;4.85;;;-4.70;98.90;;;;;;5030728;28;20814;-64
2024/01/09 04:05:22;;;;;;;5.80;4.60;;;-4.70;98.80;;;;;;5028907;28;20434;-63
2024/01/09 04:07:49;;;;;;;5.28;4.60;;;-4.70;99.10;;;;;;5029306;28;20450;-63
2024/01/09 04:10:16;;;;;;;5.90;5.18;;;-4.70;99.20;;;;;;5026041;28;20442;-64
2024/01/09 04:12:44;;;;;;;6.22;5.20;;;-4.70;99.00;;;;;;5028157;28;20438;-64
2024/01/09 04:15:10;;;;;;;5.65;4.35;;;-4.70;99.00;;;;;;5029077;28;20909;-63
2024/01/09 04:17:37;;;;;;;5.40;4.80;;;-4.80;99.00;;;;;;5028383;28;20415;-64
2024/01/09 04:20:05;;;;;;;5.70;4.40;;;-4.80;99.20;;;;;;5027739;28;20832;-64
2024/01/09 04:22:31;;;;;;;5.63;4.25;;;-4.80;99.50;;;;;;5025961;28;20790;-64
2024/01/09 04:24:58;;;;;;;5.78;4.80;;;-4.80;99.40;;;;;;5024911;28;20434;-63
2024/01/09 04:27:25;;;;;;;5.57;4.50;;;-4.80;99.80;;;;;;5026193;28;20434;-64
2024/01/09 04:29:53;;;;;;;6.68;4.88;;;-4.80;99.90;;;;;;5025274;28;20434;-64
2024/01/09 04:32:20;;;;;;;7.63;5.03;;;-4.80;99.90;;;;;;5020033;28;20522;-64
2024/01/09 04:34:47;;;;;;;5.40;4.90;;;-4.80;99.90;;;;;;5025656;28;20463;-67
2024/01/09 04:37:13;;;;;;;6.00;5.03;;;-4.80;99.90;;;;;;5023221;28;20442;-64
2024/01/09 04:39:40;;;;;;;6.70;4.60;;;-4.80;99.90;;;;;;5022177;28;20439;-63
2024/01/09 04:42:07;;;;;;;4.68;4.18;;;-4.80;99.90;;;;;;5023997;28;20505;-63
2024/01/09 04:44:34;;;;;;;5.82;4.68;;;-4.90;99.90;;;;;;5020172;28;20449;-63
2024/01/09 04:47:02;;;;;;;5.78;4.53;;;-4.90;99.90;;;;;;5021061;28;21031;-63
2024/01/09 04:49:28;;;;;;;5.80;4.30;;;-4.90;99.90;;;;;;5022111;28;20450;-61
2024/01/09 04:51:55;;;;;;;5.07;4.53;;;-4.80;99.90;;;;;;5025631;28;20411;-63
2024/01/09 04:54:22;;;;;;;6.30;4.60;;;-4.80;99.90;;;;;;5023899;28;20854;-64
2024/01/09 04:56:48;;;;;;;5.40;4.90;;;-4.80;99.90;;;;;;5016611;28;20905;-63
2024/01/09 04:59:15;;;;;;;5.05;4.32;;;-4.80;99.90;;;;;;5021677;28;20422;-63
2024/01/09 05:01:42;;;;;;;5.40;4.85;;;-4.80;99.90;;;;;;5022540;28;20419;-63
2024/01/09 05:04:10;;;;;;;5.18;4.38;;;-4.90;99.90;;;;;;5023389;28;20910;-66
2024/01/09 05:06:37;;;;;;;6.22;4.70;;;-4.90;99.90;;;;;;5027214;28;20443;-63
2024/01/09 05:09:04;;;;;;;6.30;5.00;;;-4.90;99.90;;;;;;5019931;28;20443;-63
2024/01/09 05:11:30;;;;;;;5.97;4.93;;;-4.80;99.90;;;;;;5023490;28;20455;-63
2024/01/09 05:13:57;;;;;;;5.90;5.20;;;-4.80;99.90;;;;;;5029030;28;20411;-64
2024/01/09 05:16:27;;;;;;;6.50;5.00;;;-4.80;99.90;;;;;;5025515;28;20413;-65
2024/01/09 05:18:54;;;;;;;6.07;5.00;;;-4.80;99.90;;;;;;5016867;28;20436;-63
2024/01/09 05:21:22;;;;;;;6.18;5.57;;;-4.80;99.90;;;;;;5025274;28;20410;-63
2024/01/09 05:23:49;;;;;;;6.43;5.25;;;-4.80;99.90;;;;;;5024583;28;20542;-63
2024/01/09 05:26:15;;;;;;;8.10;5.88;;;-4.90;99.90;;;;;;5024090;28;20419;-65
2024/01/09 05:28:42;;;;;;;6.13;4.70;;;-4.90;99.90;;;;;;5021754;28;20465;-63
2024/01/09 05:31:09;;;;;;;5.70;5.10;;;-4.90;99.90;;;;;;5022795;28;20414;-63
2024/01/09 05:33:36;;;;;;;5.70;5.10;;;-4.90;99.90;;;;;;5020744;28;20468;-63
2024/01/09 05:36:04;;;;;;;7.22;4.80;;;-4.90;99.90;;;;;;5024488;28;20414;-64
2024/01/09 05:38:32;;;;;;;5.80;4.90;;;-5.00;99.90;;;;;;5026096;28;20462;-62
2024/01/09 05:40:58;;;;;;;6.80;5.70;;;-5.00;99.90;;;;;;5022952;28;20457;-63
2024/01/09 05:43:25;;;;;;;5.80;4.72;;;-5.00;99.90;;;;;;5021217;28;20422;-62
2024/01/09 05:45:52;;;;;;;5.30;4.47;;;-5.00;99.90;;;;;;5020515;28;20454;-65
2024/01/09 05:48:18;;;;;;;6.05;5.45;;;-5.20;99.90;;;;;;5020573;28;20418;-64
2024/01/09 05:50:45;;;;;;;6.80;4.90;;;-5.20;99.90;;;;;;5023121;28;20445;-62
2024/01/09 05:53:12;;;;;;;7.10;4.93;;;-5.20;99.90;;;;;;5025765;28;20936;-62
2024/01/09 05:55:40;;;;;;;6.53;4.80;;;-5.20;99.90;;;;;;5054278;22;20464;-73
2024/01/09 05:58:07;;;;;;;5.65;5.10;;;-5.10;99.90;;;;;;5041636;28;20433;-74
2024/01/09 06:00:35;;;;;;;6.05;4.90;;;-5.10;99.90;;;;;;5042641;28;20828;-76
2024/01/09 06:03:02;;;;;;;7.03;5.03;;;-5.10;99.90;;;;;;5035639;28;20510;-76
2024/01/09 06:05:29;;;;;;;4.75;4.30;;;-5.10;99.90;;;;;;5030424;28;20431;-74
2024/01/09 06:07:55;;;;;;;6.30;5.00;;;-5.10;99.90;;;;;;5025956;28;20422;-70
2024/01/09 06:10:22;;;;;;;6.20;5.00;;;-5.20;99.90;;;;;;5027514;28;20414;-73
2024/01/09 06:12:51;;;;;;;5.55;4.95;;;-5.20;99.90;;;;;;5028935;28;20430;-70
2024/01/09 06:15:17;;;;;;;8.37;5.10;;;-5.10;99.90;;;;;;5029258;28;20885;-71
2024/01/09 06:17:44;;;;;;;6.10;5.35;;;-5.00;99.90;;;;;;5033545;28;20441;-72
2024/01/09 06:20:12;;;;;;;5.83;5.23;;;-5.00;99.90;;;;;;5030174;28;20901;-69
2024/01/09 06:22:38;;;;;;;5.70;5.05;;;-5.10;99.90;;;;;;5031037;28;20614;-72
2024/01/09 06:25:05;;;;;;;5.70;4.83;;;-5.10;99.90;;;;;;5030727;28;20429;-71
2024/01/09 06:27:32;;;;;;;6.38;4.70;;;-5.10;99.90;;;;;;5040578;28;20421;-72
2024/01/09 06:30:00;;;;;;;6.15;4.53;;;-5.00;99.90;;;;;;5028807;28;20933;-71
2024/01/09 06:32:27;;;;;;;7.45;5.45;;;-5.10;99.90;;;;;;5028948;28;20437;-73
2024/01/09 06:34:54;;;;;;;6.30;5.15;;;-5.10;99.90;;;;;;5027581;28;20418;-73
2024/01/09 06:37:21;;;;;;;6.80;5.10;;;-5.20;99.90;;;;;;5028443;28;20876;-73
2024/01/09 06:39:48;;;;;;;5.60;4.97;;;-5.20;99.90;;;;;;5026818;28;20419;-73
2024/01/09 06:42:15;;;;;;;7.35;5.28;;;-5.10;99.90;;;;;;5035562;28;20516;-73
2024/01/09 06:44:41;;;;;;;6.15;4.60;;;-5.10;99.90;;;;;;5030764;28;20720;-73
2024/01/09 06:47:09;;;;;;;6.33;5.00;;;-5.10;99.90;;;;;;5030082;28;20426;-73
2024/01/09 06:49:36;;;;;;;5.60;4.47;;;-5.10;99.90;;;;;;5028438;28;20782;-71
2024/01/09 06:52:03;;;;;;;6.05;4.90;;;-5.10;99.90;;;;;;5029540;28;20430;-71
2024/01/09 06:54:30;;;;;;;6.70;4.93;;;-5.10;99.90;;;;;;5027749;28;20857;-72
2024/01/09 06:56:57;;;;;;;6.25;5.30;;;-5.10;99.90;;;;;;5029013;28;20414;-73
2024/01/09 06:59:23;;;;;;;6.75;4.70;;;-5.20;99.90;;;;;;5027775;28;20415;-71
2024/01/09 07:01:50;;;;;;;7.03;4.90;;;-5.20;99.90;;;;;;5029043;28;20481;-72
2024/01/09 07:04:18;;;;;;;8.20;5.07;;;-5.20;99.90;;;;;;5028814;28;20949;-72
2024/01/09 07:06:45;;;;;;;6.32;5.10;;;-5.20;99.90;;;;;;5028498;28;20458;-72
2024/01/09 07:09:12;;;;;;;7.72;5.53;;;-5.20;99.90;;;;;;5027691;28;20877;-72
2024/01/09 07:11:39;;;;;;;10.00;5.78;;;-5.30;99.90;;;;;;5029600;28;20426;-71
2024/01/09 07:14:07;;;;;;;9.10;6.15;;;-5.30;99.90;;;;;;5026698;28;20415;-71
2024/01/09 07:16:33;;;;;;;6.90;5.05;;;-5.20;99.90;;;;;;5033812;28;20573;-72
2024/01/09 07:19:00;;;;;;;8.77;5.90;;;-5.30;99.90;;;;;;5025477;28;20415;-72
2024/01/09 07:21:28;;;;;;;11.25;6.45;;;-5.30;99.90;;;;;;5029522;28;20419;-72
2024/01/09 07:23:55;;;;;;;7.97;5.70;;;-5.20;99.90;;;;;;5028621;28;20438;-72
2024/01/09 07:26:22;;;;;;;8.18;6.00;;;-5.30;99.90;;;;;;5028027;28;20435;-72
2024/01/09 07:28:48;;;;;;;8.32;5.50;;;-5.30;99.90;;;;;;5030866;28;20418;-71
2024/01/09 07:31:15;;;;;;;6.75;4.80;;;-5.20;99.90;;;;;;5028600;28;20446;-72
2024/01/09 07:33:42;;;;;;;5.75;5.15;;;-5.30;99.90;;;;;;5033254;28;20414;-71
2024/01/09 07:36:09;;;;;;;6.20;5.22;;;-5.30;99.90;;;;;;5030785;28;20913;-73
2024/01/09 07:38:38;;;;;;;5.90;4.80;;;-5.40;99.90;;;;;;5023722;28;20438;-73
2024/01/09 07:41:04;;;;;;;7.05;5.22;;;-5.30;99.90;;;;;;5027748;28;20501;-74
2024/01/09 07:43:31;;;;;;;12.15;5.68;;;-5.40;99.90;;;;;;5034871;28;20427;-72
2024/01/09 07:45:58;;;;;;;7.83;5.77;;;-5.30;99.90;;;;;;5030225;28;20508;-72
2024/01/09 07:48:25;;;;;;;7.03;5.60;;;-5.30;99.90;;;;;;5027858;28;21204;-72
2024/01/09 07:50:52;;;;;;;8.00;5.60;;;-5.30;99.90;;;;;;5028655;28;20415;-72
2024/01/09 07:53:18;;;;;;;7.00;5.80;;;-5.30;99.90;;;;;;5030046;28;20436;-73
2024/01/09 07:55:46;;;;;;;7.75;5.55;;;-5.20;99.90;;;;;;5025258;28;20423;-72
2024/01/09 07:58:13;;;;;;;7.70;5.40;;;-5.10;99.90;;;;;;5031198;28;20416;-73
2024/01/09 08:00:40;;;;;;;10.32;5.50;;;-5.10;99.90;;;;;;5027975;28;20411;-72
2024/01/09 08:03:07;;;;;;;8.40;5.30;;;-5.10;99.90;;;;;;5028504;28;20475;-72
2024/01/09 08:05:33;;;;;;;7.45;5.45;;;-5.00;99.90;;;;;;5028292;28;20431;-73
2024/01/09 08:08:00;;;;;;;8.10;5.93;;;-5.00;99.90;;;;;;5028273;28;20818;-72
2024/01/09 08:10:27;;;;;;;7.80;5.88;;;-4.90;99.90;;;;;;5027239;28;20454;-72
2024/01/09 08:12:55;;;;;;;7.60;5.60;;;-4.90;99.90;;;;;;5033357;28;20467;-71
2024/01/09 08:15:22;;;;;;;8.57;6.15;;;-4.80;99.90;;;;;;5025118;28;20411;-71
2024/01/09 08:17:49;;;;;;;6.30;5.45;;;-4.80;99.90;;;;;;5026301;28;20932;-70
2024/01/09 08:20:16;;;;;;;7.90;6.13;;;-4.70;99.90;;;;;;5027546;28;20422;-71
2024/01/09 08:22:43;;;;;;;6.50;5.47;;;-4.60;99.90;;;;;;5022949;28;20994;-70
2024/01/09 08:25:09;;;;;;;8.82;5.60;;;-4.40;99.90;;;;;;5022141;28;20438;-71
2024/01/09 08:27:36;;;;;;;6.60;5.85;;;-4.30;99.90;;;;;;5030799;28;20459;-70
2024/01/09 08:30:06;;;;;;;9.40;6.00;;;-4.10;99.90;;;;;;5029778;28;20501;-71
2024/01/09 08:32:33;;;;;;;9.75;5.88;;;-3.90;99.90;;;;;;5029141;28;20731;-71
2024/01/09 08:34:59;;;;;;;16.45;7.25;;;-3.80;99.90;;;;;;5028431;28;20427;-71
2024/01/09 08:37:26;;;;;;;8.65;6.10;;;-3.60;99.90;;;;;;5028425;28;20438;-71
2024/01/09 08:39:53;;;;;;;8.15;5.68;;;-3.40;99.90;;;;;;5027074;28;20419;-72
2024/01/09 08:42:20;;;;;;;7.38;5.13;;;-3.30;99.90;;;;;;5029130;28;20426;-71
2024/01/09 08:44:47;;;;;;;11.88;6.32;;;-3.10;99.50;;;;;;5028347;28;20946;-71
2024/01/09 08:47:16;;;;;;;8.40;6.20;;;-3.00;98.60;;;;;;5026073;28;20439;-71
2024/01/09 08:49:44;;;;;;;8.90;6.00;;;-2.80;98.00;;;;;;5021693;28;20913;-71
2024/01/09 08:52:10;;;;;;;6.82;5.65;;;-2.70;97.90;;;;;;5026545;28;20410;-71
2024/01/09 08:54:37;;;;;;;6.78;5.40;;;-2.50;96.00;;;;;;5025248;28;20418;-71
2024/01/09 08:57:05;;;;;;;7.33;5.40;;;-2.30;94.70;;;;;;5025560;28;20920;-71
2024/01/09 08:59:31;;;;;;;6.85;5.50;;;-2.20;93.40;;;;;;5026245;28;20519;-71
2024/01/09 09:01:58;;;;;;;8.35;5.60;;;-2.10;92.80;;;;;;5027626;28;20410;-70
2024/01/09 09:04:26;;;;;;;7.32;5.70;;;-1.90;92.10;;;;;;5031467;28;20416;-70
2024/01/09 09:06:53;;;;;;;12.43;6.65;;;-1.80;90.20;;;;;;5025705;28;20445;-71
2024/01/09 09:09:20;;;;;;;7.30;5.47;;;-1.70;89.70;;;;;;5025247;28;20417;-71
2024/01/09 09:11:47;;;;;;;8.90;5.20;;;-1.60;84.20;;;;;;5027223;28;20415;-71
2024/01/09 09:14:13;;;;;;;8.60;5.82;;;-1.40;81.50;;;;;;5023913;28;20419;-71
2024/01/09 09:16:41;;;;;;;9.27;6.00;;;-1.30;78.80;;;;;;5026610;28;20431;-71
2024/01/09 09:19:08;;;;;;;7.68;5.32;;;-1.20;78.70;;;;;;5026779;28;20451;-71
2024/01/09 09:21:36;;;;;;;8.60;5.75;;;-1.00;75.40;;;;;;5025507;28;20447;-71
2024/01/09 09:24:03;;;;;;;9.27;6.10;;;-0.90;72.80;;;;;;5026735;28;20418;-71
2024/01/09 09:26:32;;;;;;;7.75;5.22;;;-0.80;74.70;;;;;;5026061;28;20429;-71
2024/01/09 09:28:59;;;;;;;7.18;5.80;;;-0.70;72.50;;;;;;5024925;28;20576;-71
2024/01/09 09:31:26;;;;;;;6.78;5.50;;;-0.70;71.30;;;;;;5025663;28;20419;-71
2024/01/09 09:33:52;;;;;;;6.77;6.00;;;-0.60;71.20;;;;;;5024380;28;20769;-74
2024/01/09 09:36:19;;;;;;;7.28;5.90;;;-0.50;70.60;;;;;;5025003;28;20904;-73
2024/01/09 09:38:47;;;;;;;8.68;6.00;;;-0.40;70.90;;;;;;5026754;28;20422;-72
2024/01/09 09:41:16;;;;;;;7.25;5.78;;;-0.40;68.50;;;;;;5026237;28;20438;-72
2024/01/09 09:43:49;;;;;;;6.00;5.40;;;-0.30;68.10;;;;;;5024881;28;20446;-72
2024/01/09 09:46:24;;;;;;;7.53;5.88;;;-0.30;68.00;;;;;;5030039;28;20435;-72
2024/01/09 09:48:53;;;;;;;6.80;6.10;;;-0.30;67.50;;;;;;5026580;28;20426;-72
2024/01/09 09:51:20;;;;;;;6.65;5.80;;;-0.20;66.80;;;;;;5025112;28;20517;-72
2024/01/09 09:53:48;;;;;;;7.15;5.80;;;-0.10;65.90;;;;;;5030407;28;20422;-72
2024/01/09 09:56:15;;;;;;;6.28;5.30;;;0.10;65.40;;;;;;5025895;28;20741;-72
2024/01/09 09:58:42;;;;;;;7.10;5.50;;;0.20;64.90;;;;;;5019996;28;20505;-72
2024/01/09 10:01:11;;;;;;;6.00;5.40;;;0.20;63.90;;;;;;5025275;28;20967;-72
2024/01/09 10:03:45;;;;;;;6.30;5.67;;;0.30;63.90;;;;;;5026281;28;20430;-72
2024/01/09 10:06:13;;;;;;;6.72;5.88;;;0.30;63.60;;;;;;5025131;28;20434;-73
2024/01/09 10:08:41;;;;;;;7.65;5.68;;;0.40;63.60;;;;;;5025854;28;20407;-72
2024/01/09 10:11:10;;;;;;;8.77;6.18;;;0.60;62.30;;;;;;5026028;28;20423;-72
2024/01/09 10:13:37;;;;;;;7.82;5.63;;;0.70;62.00;;;;;;5024478;28;20439;-72
2024/01/09 10:16:04;;;;;;;8.77;6.07;;;0.80;61.60;;;;;;5026357;28;20426;-72
2024/01/09 10:18:32;;;;;;;7.32;5.70;;;0.90;61.20;;;;;;5026516;28;20415;-72
2024/01/09 10:20:59;;;;;;;8.00;5.63;;;1.00;60.40;;;;;;5030158;28;20462;-72
2024/01/09 10:23:27;;;;;;;7.90;5.43;;;1.10;60.00;;;;;;5030667;28;20970;-72
2024/01/09 10:25:54;;;;;;;7.03;4.97;;;1.10;59.30;;;;;;5025704;28;20438;-72
2024/01/09 10:28:23;;;;;;;5.70;5.03;;;1.30;58.80;;;;;;5024998;28;20435;-72
2024/01/09 10:30:52;;;;;;;7.82;5.85;;;1.30;58.40;;;;;;5024831;28;20415;-73
2024/01/09 10:33:19;;;;;;;7.47;5.20;;;1.40;58.50;;;;;;5025775;28;20422;-71
2024/01/09 10:35:46;;;;;;;5.70;4.93;;;1.50;58.30;;;;;;5027972;28;20810;-71
2024/01/09 10:38:13;;;;;;;7.45;5.07;;;1.70;57.80;;;;;;5024451;28;20869;-70
2024/01/09 10:40:40;;;;;;;6.22;5.28;;;1.70;56.90;;;;;;5025571;28;20433;-70
2024/01/09 10:43:07;;;;;;;5.93;5.10;;;1.80;56.90;;;;;;5026021;28;21036;-70
2024/01/09 10:45:36;;;;;;;6.70;5.57;;;1.80;56.60;;;;;;5022903;28;20441;-70
2024/01/09 10:48:06;;;;;;;7.17;5.43;;;1.80;56.30;;;;;;5027081;28;20559;-71
2024/01/09 10:50:34;;;;;;;7.63;5.80;;;1.80;55.60;;;;;;5035148;28;20432;-71
2024/01/09 10:53:01;;;;;;;5.80;5.20;;;1.80;56.00;;;;;;5024128;28;20445;-70
2024/01/09 10:55:28;;;;;;;6.90;5.50;;;1.80;55.70;;;;;;5028532;28;20430;-70
2024/01/09 10:57:56;;;;;;;5.75;5.15;;;1.80;55.40;;;;;;5026699;28;20798;-70
2024/01/09 11:00:23;;;;;;;7.05;5.57;;;1.90;55.20;;;;;;5026440;28;20442;-70
2024/01/09 11:02:51;;;;;;;8.38;5.25;;;1.90;54.30;;;;;;5030385;28;20928;-70
2024/01/09 11:05:18;;;;;;;6.73;5.50;;;1.90;54.10;;;;;;5029618;28;20434;-70
2024/01/09 11:07:47;;;;;;;6.13;5.00;;;1.90;54.10;;;;;;5024530;28;20429;-72
2024/01/09 11:10:17;;;;;;;7.22;5.97;;;1.80;54.20;;;;;;5027584;28;20438;-72
2024/01/09 11:12:48;;;;;;;6.65;4.78;;;1.80;55.30;;;;;;5023305;28;20477;-72
2024/01/09 11:15:19;;;;;;;7.10;5.00;;;1.80;54.60;;;;;;5024152;28;20525;-72
2024/01/09 11:17:51;;;;;;;7.47;5.20;;;1.80;54.50;;;;;;5026144;28;20399;-72
2024/01/09 11:20:19;;;;;;;8.43;5.60;;;1.90;54.00;;;;;;5027380;28;20435;-72
2024/01/09 11:22:46;;;;;;;7.20;5.13;;;1.80;53.50;;;;;;5036797;28;20422;-72
2024/01/09 11:25:16;;;;;;;7.28;4.50;;;1.80;53.70;;;;;;5020029;28;20522;-72
2024/01/09 11:27:47;;;;;;;6.05;4.55;;;1.90;53.60;;;;;;5032271;28;20427;-72
2024/01/09 11:30:16;;;;;;;7.15;4.95;;;2.00;53.40;;;;;;5029545;28;20430;-70
2024/01/09 11:32:43;;;;;;;5.60;4.72;;;2.00;53.20;;;;;;5033914;28;20419;-73
2024/01/09 11:35:11;;;;;;;5.20;4.60;;;2.00;52.40;;;;;;5025318;28;20431;-64
2024/01/09 11:37:42;;;;;;;8.23;4.25;;;2.00;53.10;;;;;;5031178;28;20417;-63
2024/01/09 11:40:10;;;;;;;5.13;4.60;;;2.10;53.80;;;;;;5027683;28;20424;-73
2024/01/09 11:42:38;;;;;;;5.75;4.72;;;2.10;52.90;;;;;;5035200;28;20421;-70
2024/01/09 11:45:07;;;;;;;5.13;4.63;;;2.20;52.50;;;;;;5029369;28;20590;-71
2024/01/09 11:47:36;;;;;;;7.13;4.95;;;2.40;52.70;;;;;;5037920;28;20475;-72
2024/01/09 11:50:06;;;;;;;7.57;4.60;;;2.60;52.50;;;;;;5027815;28;20443;-70
2024/01/09 11:52:32;;;;;;;9.85;5.10;;;2.80;51.20;;;;;;5027576;28;20437;-73
2024/01/09 11:55:01;;;;;;;5.90;4.60;;;3.20;50.30;;;;;;5051412;22;20496;-66
2024/01/09 11:57:28;;;;;;;5.75;4.32;;;3.50;49.80;;;;;;5042634;28;20702;-66
2024/01/09 11:59:55;;;;;;;5.50;4.70;;;3.90;48.10;;;;;;5031825;28;20418;-65
2024/01/09 12:02:22;;;;;;;5.60;5.10;;;4.20;46.80;;;;;;5043270;28;20413;-66
2024/01/09 12:04:49;;;;;;;5.85;4.90;;;4.50;47.30;;;;;;5033823;28;20900;-66
2024/01/09 12:07:15;;;;;;;5.35;4.68;;;4.80;46.60;;;;;;5013164;28;20429;-65
2024/01/09 12:09:42;;;;;;;6.88;5.20;;;5.10;45.10;;;;;;5011235;28;20726;-66
2024/01/09 12:12:11;;;;;;;6.30;5.10;;;5.30;44.80;;;;;;5010896;28;20743;-66
2024/01/09 12:14:37;;;;;;;5.87;5.10;;;5.90;44.80;;;;;;5013632;28;20831;-66
2024/01/09 12:17:19;;;;;;;6.88;5.15;;;6.80;43.40;;;;;;5013252;28;20788;-67
2024/01/09 12:19:46;;;;;;;5.45;4.95;;;8.10;41.00;;;;;;5011572;28;20680;-67
2024/01/09 12:22:13;;;;;;;6.13;4.90;;;8.60;38.70;;;;;;5016288;28;20432;-67
2024/01/09 12:24:40;;;;;;;6.72;5.10;;;9.00;37.40;;;;;;5019608;28;20495;-66
2024/01/09 12:27:07;;;;;;;7.53;6.03;;;8.70;36.30;;;;;;5009926;28;20433;-66
2024/01/09 12:29:35;;;;;;;5.90;5.20;;;8.30;37.10;;;;;;5015132;28;20415;-64
2024/01/09 12:32:03;;;;;;;8.93;4.97;;;8.00;37.30;;;;;;5012296;28;20427;-66
2024/01/09 12:34:30;;;;;;;7.40;5.20;;;7.70;36.70;;;;;;5011934;28;20437;-68
2024/01/09 12:36:58;;;;;;;5.28;4.70;;;7.40;37.60;;;;;;5014458;28;20442;-66
2024/01/09 12:39:25;;;;;;;7.05;4.97;;;7.20;37.40;;;;;;5008759;28;20927;-68
2024/01/09 12:42:04;;;;;;;7.22;5.43;;;7.10;37.60;;;;;;5021207;28;20700;-66
2024/01/09 12:44:31;;;;;;;7.05;5.63;;;7.10;37.80;;;;;;5006824;28;20409;-67
2024/01/09 12:46:59;;;;;;;6.50;4.85;;;7.20;38.20;;;;;;5013333;28;20434;-66
2024/01/09 12:49:26;;;;;;;6.50;5.03;;;7.20;37.80;;;;;;5013480;28;20492;-67